Flight Track Log - Related Links

Times and Time Zones

All times are in EST time to prevent confusion due to time zone crossing. See the N10CW flight status page for this flight to view local times or setup timezone preferences in your user account.

Time Position Orientation Groundspeed Altitude Reporting Facility
EST Latitude Longitude Course Direction KTS MPH feet Rate Location/Type
Thu 12:59:07 PM 31.1547 -84.0603 159° South 245 282 15,400  Level Jacksonville Center
Thu 01:00:07 PM 31.0883 -84.0303 159° South 250 288 15,400  Level Jacksonville Center
Thu 01:01:07 PM 31.0239 -84.0006 158° South 250 288 15,400  Level Jacksonville Center
Thu 01:02:07 PM 30.9572 -83.9706 159° South 250 288 15,400  Level Jacksonville Center
Thu 01:03:07 PM 30.8928 -83.9408 158° South 250 288 15,400  Level Jacksonville Center
Thu 01:04:07 PM 30.8303 -83.9111 158° South 250 288 15,400  Level Jacksonville Center
Thu 01:05:07 PM 30.7658 -83.8839 160° South 250 288 15,400 50 Level Jacksonville Center
Thu 01:06:07 PM 30.7014 -83.8542 158° South 250 288 15,500 50 Climbing Jacksonville Center
Thu 01:07:07 PM 30.6369 -83.8222 157° South 250 288 15,500 -100 Level Jacksonville Center
Thu 01:08:07 PM 30.5722 -83.7925 158° South 250 288 15,300 -300 Descending Jacksonville Center
Thu 01:09:07 PM 30.5161 -83.7678 159° South 250 288 14,900 -150 Descending Jacksonville Center
Thu 01:10:07 PM 30.4517 -83.7383 159° South 250 288 15,000  Climbing Jacksonville Center
Thu 01:11:07 PM 30.3850 -83.7136 162° South 250 288 14,900  Descending Jacksonville Center
Thu 01:12:07 PM 30.3225 -83.6892 161° South 250 288 15,000  Climbing Jacksonville Center
Thu 01:13:07 PM 30.2600 -83.6597 158° South 250 288 14,900 -50 Descending Jacksonville Center
Thu 01:14:07 PM 30.1956 -83.6353 162° South 250 288 14,900  Level Jacksonville Center
Thu 01:15:07 PM 30.1308 -83.6083 160° South 250 288 14,900  Level Jacksonville Center
Thu 01:16:07 PM 30.0683 -83.5789 158° South 250 288 14,900  Level Jacksonville Center
Thu 01:17:07 PM 30.0058 -83.5544 161° South 250 288 14,900 50 Level Jacksonville Center
Thu 01:18:07 PM 29.9433 -83.5278 160° South 250 288 15,000  Climbing Jacksonville Center
Thu 01:19:07 PM 29.8808 -83.5011 160° South 250 288 14,900  Descending Jacksonville Center
Thu 01:20:07 PM 29.8206 -83.4767 161° South 250 288 15,000 50 Climbing Jacksonville Center
Thu 01:21:07 PM 29.7600 -83.4500 159° South 244 281 15,000  Level Jacksonville Center
Thu 01:22:07 PM 29.7039 -83.4258 159° South 237 273 15,000  Level Jacksonville Center
Thu 01:23:07 PM 29.6433 -83.4017 161° South 231 266 15,000 -50 Level Jacksonville Center
Thu 01:24:07 PM 29.5850 -83.3775 160° South 231 266 14,900  Descending Jacksonville Center
Thu 01:25:07 PM 29.5244 -83.3508 159° South 231 266 15,000 50 Climbing Jacksonville Center
Thu 01:26:07 PM 29.4619 -83.3267 161° South 231 266 15,000  Level Jacksonville Center
Thu 01:27:07 PM 29.3994 -83.3003 160° South 231 266 15,000  Level Jacksonville Center
Thu 01:28:07 PM 29.3286 -83.2714 160° South 243 280 15,000  Level Jacksonville Center
Thu 01:29:07 PM 29.2661 -83.2425 158° South 243 280 15,000  Level Jacksonville Center
Thu 01:30:07 PM 29.2014 -83.2161 160° South 248 285 15,000  Level Jacksonville Center
Thu 01:31:07 PM 29.1367 -83.1897 160° South 248 285 15,000  Level Jacksonville Center
Thu 01:32:07 PM 29.0700 -83.1633 161° South 248 285 15,000  Level Jacksonville Center
Thu 01:33:07 PM 29.0075 -83.1372 160° South 248 285 15,000  Level Jacksonville Center
Thu 01:34:07 PM 28.9450 -83.1086 158° South 248 285 15,000  Level Jacksonville Center
Thu 01:35:07 PM 28.8822 -83.0847 162° South 248 285 15,000  Level Jacksonville Center
Thu 01:36:07 PM 28.8217 -83.0608 161° South 243 280 15,000  Level Jacksonville Center
Thu 01:37:07 PM 28.7592 -83.0347 160° South 243 280 15,000  Level Jacksonville Center
Thu 01:38:07 PM 28.7008 -83.0086 159° South 243 280 15,000  Level Jacksonville Center
Thu 01:39:07 PM 28.6383 -82.9847 161° South 238 274 15,000  Level Jacksonville Center
Thu 01:40:07 PM 28.5778 -82.9564 158° South 238 274 15,000  Level Jacksonville Center
Thu 01:41:07 PM 28.5214 -82.9375 164° South 233 268 15,000  Level Jacksonville Center
Thu 01:42:07 PM 28.4589 -82.9139 162° South 233 268 15,000  Level Jacksonville Center
Thu 01:43:07 PM 28.3961 -82.8856 158° South 238 274 15,000 -29 Level Jacksonville Center
Thu 01:45:36 PM 28.2311 -82.8175 160° South 244 281 14,900 -29 Descending Miami Center
Thu 01:46:36 PM 28.1656 -82.7928 162° South 244 281 14,900  Level Miami Center
Thu 01:47:36 PM 28.0997 -82.7658 160° South 244 281 14,900  Level Miami Center
Thu 01:48:36 PM 28.0364 -82.7392 160° South 244 281 14,900  Level Miami Center
Thu 01:49:36 PM 27.9686 -82.7119 160° South 244 281 14,900  Level Miami Center
Thu 01:50:36 PM 27.9050 -82.6853 160° South 244 281 14,900  Level Miami Center
Thu 01:51:36 PM 27.8367 -82.6700 169° South 244 281 14,900  Level Miami Center
Thu 01:52:36 PM 27.7708 -82.6525 167° South 244 281 14,900  Level Miami Center
Thu 01:53:36 PM 27.7067 -82.6378 169° South 244 281 14,900  Level Miami Center
Thu 01:54:36 PM 27.6406 -82.6225 168° South 244 281 14,900  Level Miami Center
Thu 01:55:36 PM 27.5744 -82.6053 167° South 244 281 14,900  Level Miami Center
Thu 01:56:36 PM 27.5103 -82.5903 168° South 239 275 14,900  Level Miami Center
Thu 01:57:36 PM 27.4442 -82.5731 167° South 239 275 14,900  Level Miami Center
Thu 01:58:36 PM 27.3803 -82.5581 168° South 239 275 14,900  Level Miami Center
Thu 01:59:36 PM 27.3161 -82.5433 168° South 239 275 14,900  Level Miami Center
Thu 02:00:36 PM 27.2500 -82.5261 167° South 239 275 14,900 -450 Level Miami Center
Thu 02:01:36 PM 27.1817 -82.5111 169° South 244 281 14,000 -900 Descending Miami Center
Thu 02:02:36 PM 27.1094 -82.4933 168° South 256 295 13,100 -600 Descending Miami Center
Thu 02:03:36 PM 27.0392 -82.4736 166° South 262 302 12,800 -300 Descending Miami Center
Thu 02:04:36 PM 26.9811 -82.4617 170° South 255 293 12,500 -400 Descending Miami Center
Thu 02:05:36 PM 26.9192 -82.4447 166° South 243 280 12,000 -750 Descending Miami Center
Thu 02:06:36 PM 26.8511 -82.4275 167° South 238 274 11,000 -1,000 Descending Miami Center
Thu 02:07:36 PM 26.7806 -82.4125 169° South 249 287 10,000 -1,050 Descending Miami Center
Thu 02:08:36 PM 26.7042 -82.3925 167° South 260 299 8,900 -1,050 Descending Miami Center
Thu 02:09:36 PM 26.6339 -82.3753 168° South 260 299 7,900 -950 Descending Miami Center
Thu 02:10:36 PM 26.5728 -82.3378 151° Southeast 255 293 7,000 -450 Descending Miami Center
Thu 02:11:36 PM 26.5178 -82.3003 149° Southeast 248 285 7,000  Level Miami Center
Thu 02:13:00 PM 26.3711 -82.0407 124° Southeast  Level FlightAware Approximate
Thu 02:20:00 PM 26.1524 -81.7756 130° Southeast  Level Estimated
Thu 02:21:00 PM 26.1524 -81.7756 130° Southeast  Level Estimated
Thu 02:22:00 PM 26.1524 -81.7756 130° Southeast  Level Estimated
Thu 02:23:00 PM 26.1524 -81.7756 130° Southeast  Level Estimated
Thu 02:24:00 PM 26.1524 -81.7756 130° Southeast  Level Estimated
Thu 02:25:00 PM 26.1524 -81.7756 130° Southeast  Level Estimated
Thu 02:26:00 PM 26.1524 -81.7756 130° Southeast  Level Estimated
Thu 02:27:00 PM 26.1524 -81.7756 130° Southeast  Level Estimated
Thu 02:28:00 PM 26.1524 -81.7756 130° Southeast  Level Estimated
Thu 02:29:00 PM 26.1524 -81.7756 130° Southeast  Level Estimated
Thu 02:30:00 PM 26.1524 -81.7756 130° Southeast  Level Estimated
Thu 02:31:00 PM 26.1524 -81.7756 130° Southeast  Level Estimated
Thu 02:32:00 PM 26.1524 -81.7756 130° Southeast  Level Estimated
Thu 02:33:00 PM 26.1524 -81.7756 130° Southeast  Level Estimated

Login

Don't have an account? Register now (free) for customized features, flight alerts, and more!